Time;durP1;ratioP1;P1;durP2;ratioP2;P2;SDS_P1;SDS_P2;PMS_P1;PMS_P2;Temp;Humidity;BMP_temperature;BMP_pressure;BME280_temperature;BME280_humidity;BME280_pressure;Samples;Min_cycle;Max_cycle;Signal;HPM_P1;HPM_P2
2022/03/11 00:00:02;;;;;;;10.40;4.15;;;;;;;;;;5044262;28;20083;-57
2022/03/11 00:02:29;;;;;;;10.40;3.90;;;;;;;;;;5051209;28;20127;-51
2022/03/11 00:04:56;;;;;;;11.73;4.38;;;;;;;;;;5049742;28;20056;-55
2022/03/11 00:07:22;;;;;;;11.32;4.35;;;;;;;;;;5042035;28;20102;-59
2022/03/11 00:09:51;;;;;;;11.75;4.53;;;;;;;;;;5049457;28;20048;-56
2022/03/11 00:12:17;;;;;;;18.17;4.40;;;;;;;;;;5044381;28;20057;-57
2022/03/11 00:14:44;;;;;;;14.07;3.95;;;;;;;;;;5053621;28;20067;-59
2022/03/11 00:17:11;;;;;;;8.45;3.35;;;;;;;;;;5045421;28;20126;-59
2022/03/11 00:19:37;;;;;;;11.50;4.55;;;;;;;;;;5050578;28;20062;-50
2022/03/11 00:22:04;;;;;;;14.05;4.50;;;;;;;;;;5046821;28;20056;-54
2022/03/11 00:24:31;;;;;;;11.60;4.30;;;;;;;;;;5053731;28;20060;-54
2022/03/11 00:26:59;;;;;;;11.38;4.20;;;;;;;;;;5046894;28;20133;-52
2022/03/11 00:29:26;;;;;;;15.23;4.60;;;;;;;;;;5051771;28;20048;-57
2022/03/11 00:31:52;;;;;;;13.05;4.10;;;;;;;;;;5047358;28;20036;-53
2022/03/11 00:34:26;;;;;;;10.43;4.20;;;;;;;;;;5054758;28;20123;-56
2022/03/11 00:36:53;;;;;;;10.88;4.63;;;;;;;;;;5050576;28;20118;-53
2022/03/11 00:39:19;;;;;;;12.88;4.43;;;;;;;;;;5055209;28;20059;-49
2022/03/11 00:41:46;;;;;;;10.10;4.80;;;;;;;;;;5047512;28;20044;-52
2022/03/11 00:44:14;;;;;;;11.18;4.03;;;;;;;;;;5054445;28;20071;-54
2022/03/11 00:46:41;;;;;;;12.18;4.18;;;;;;;;;;5051719;28;20075;-54
2022/03/11 00:49:08;;;;;;;13.02;4.60;;;;;;;;;;5045737;28;20067;-53
2022/03/11 00:51:35;;;;;;;10.75;4.68;;;;;;;;;;5053056;28;20056;-51
2022/03/11 00:54:02;;;;;;;10.98;4.03;;;;;;;;;;5047760;28;20052;-53
2022/03/11 00:56:30;;;;;;;11.20;4.22;;;;;;;;;;5051589;28;20152;-53
2022/03/11 00:58:57;;;;;;;13.18;4.50;;;;;;;;;;5047126;28;20056;-53
2022/03/11 01:01:25;;;;;;;12.20;3.75;;;;;;;;;;5053931;28;20080;-53
2022/03/11 01:03:52;;;;;;;10.35;3.70;;;;;;;;;;5046461;28;20060;-59
2022/03/11 01:06:19;;;;;;;13.05;4.93;;;;;;;;;;5054556;28;20074;-59
2022/03/11 01:08:45;;;;;;;11.85;4.47;;;;;;;;;;5047250;28;20052;-57
2022/03/11 01:11:14;;;;;;;10.85;4.47;;;;;;;;;;5055015;28;20151;-56
2022/03/11 01:13:41;;;;;;;15.73;4.22;;;;;;;;;;5046950;28;20052;-62
2022/03/11 01:16:08;;;;;;;15.23;5.10;;;;;;;;;;5051763;28;20137;-62
2022/03/11 01:18:36;;;;;;;11.73;4.85;;;;;;;;;;5045618;28;20040;-53
2022/03/11 01:21:03;;;;;;;11.00;4.40;;;;;;;;;;5059781;28;20144;-62
2022/03/11 01:23:32;;;;;;;10.52;4.25;;;;;;;;;;5046254;28;20070;-58
2022/03/11 01:25:59;;;;;;;18.88;4.43;;;;;;;;;;5054373;28;20056;-53
2022/03/11 01:28:25;;;;;;;12.00;4.80;;;;;;;;;;5048658;28;20052;-55
2022/03/11 01:30:52;;;;;;;12.82;4.60;;;;;;;;;;5051995;28;20105;-52
2022/03/11 01:33:18;;;;;;;13.65;5.47;;;;;;;;;;5053999;28;20052;-54
2022/03/11 01:35:48;;;;;;;11.30;4.10;;;;;;;;;;5046373;28;20067;-50
2022/03/11 01:38:14;;;;;;;12.40;4.97;;;;;;;;;;5050898;28;20060;-55
2022/03/11 01:40:41;;;;;;;12.23;4.90;;;;;;;;;;5044006;28;20056;-54
2022/03/11 01:43:14;;;;;;;10.50;4.05;;;;;;;;;;5053485;28;20069;-53
2022/03/11 01:45:41;;;;;;;14.45;4.93;;;;;;;;;;5045733;28;20052;-55
2022/03/11 01:48:08;;;;;;;11.35;4.22;;;;;;;;;;5052834;28;20074;-57
2022/03/11 01:50:35;;;;;;;13.15;5.22;;;;;;;;;;5051190;28;20097;-57
2022/03/11 01:53:03;;;;;;;11.15;4.45;;;;;;;;;;5052665;28;20057;-53
2022/03/11 01:55:30;;;;;;;12.35;4.72;;;;;;;;;;5043259;28;20048;-54
2022/03/11 01:57:56;;;;;;;12.23;4.80;;;;;;;;;;5051253;28;20121;-54
2022/03/11 02:00:23;;;;;;;9.27;3.65;;;;;;;;;;5045563;28;20060;-55
2022/03/11 02:02:49;;;;;;;11.73;4.20;;;;;;;;;;5050647;28;20045;-56
2022/03/11 02:05:18;;;;;;;15.70;5.38;;;;;;;;;;5043871;28;20139;-58
2022/03/11 02:07:44;;;;;;;9.90;3.88;;;;;;;;;;5075114;28;20055;-53
2022/03/11 02:10:12;;;;;;;15.40;5.00;;;;;;;;;;5034645;28;20068;-58
2022/03/11 02:12:39;;;;;;;14.30;4.93;;;;;;;;;;5051673;28;20050;-59
2022/03/11 02:15:07;;;;;;;14.35;5.13;;;;;;;;;;5052197;28;20052;-51
2022/03/11 02:17:34;;;;;;;12.10;4.30;;;;;;;;;;5045248;28;20087;-58
2022/03/11 02:20:00;;;;;;;14.82;4.80;;;;;;;;;;5052085;28;20075;-56
2022/03/11 02:22:28;;;;;;;15.85;5.05;;;;;;;;;;5045690;28;20118;-52
2022/03/11 02:24:56;;;;;;;11.07;4.80;;;;;;;;;;5052749;28;20053;-53
2022/03/11 02:27:23;;;;;;;15.00;4.72;;;;;;;;;;5042986;28;20088;-54
2022/03/11 02:29:49;;;;;;;16.27;5.97;;;;;;;;;;5051150;28;20053;-58
2022/03/11 02:32:16;;;;;;;9.18;3.50;;;;;;;;;;5048776;28;20142;-53
2022/03/11 02:34:43;;;;;;;8.77;3.47;;;;;;;;;;5049506;28;20083;-58
2022/03/11 02:37:09;;;;;;;16.23;5.97;;;;;;;;;;5042207;28;20129;-54
2022/03/11 02:39:36;;;;;;;9.93;4.32;;;;;;;;;;5051623;28;20125;-53
2022/03/11 02:42:04;;;;;;;14.43;5.15;;;;;;;;;;5045196;28;20040;-57
2022/03/11 02:44:31;;;;;;;14.40;5.25;;;;;;;;;;5051872;28;20063;-54
2022/03/11 02:46:59;;;;;;;12.18;4.57;;;;;;;;;;5043339;28;20044;-54
2022/03/11 02:49:26;;;;;;;12.60;4.80;;;;;;;;;;5077530;28;20105;-54
2022/03/11 02:51:53;;;;;;;11.20;4.18;;;;;;;;;;5044707;28;20309;-51
2022/03/11 02:54:21;;;;;;;14.70;5.53;;;;;;;;;;5052097;28;20159;-54
2022/03/11 02:56:47;;;;;;;14.20;4.63;;;;;;;;;;5050610;28;20136;-57
2022/03/11 02:59:15;;;;;;;12.40;5.05;;;;;;;;;;5048123;28;20053;-52
2022/03/11 03:01:42;;;;;;;13.18;5.60;;;;;;;;;;5050428;28;20136;-51
2022/03/11 03:04:11;;;;;;;15.52;5.32;;;;;;;;;;5043577;28;20056;-55
2022/03/11 03:06:37;;;;;;;13.20;5.30;;;;;;;;;;5050227;28;20049;-57
2022/03/11 03:09:04;;;;;;;13.27;5.25;;;;;;;;;;5044174;28;20057;-56
2022/03/11 03:11:30;;;;;;;15.15;5.47;;;;;;;;;;5050164;28;20113;-57
2022/03/11 03:13:59;;;;;;;9.48;4.10;;;;;;;;;;5054369;28;20063;-53
2022/03/11 03:16:27;;;;;;;14.70;4.97;;;;;;;;;;5069194;28;20047;-54
2022/03/11 03:18:53;;;;;;;6.20;2.17;;;;;;;;;;5052701;28;20139;-57
2022/03/11 03:21:20;;;;;;;16.33;5.20;;;;;;;;;;5051565;28;20068;-59
2022/03/11 03:23:47;;;;;;;11.20;4.35;;;;;;;;;;5054577;28;20059;-57
2022/03/11 03:26:13;;;;;;;11.32;4.78;;;;;;;;;;5072075;28;20064;-55
2022/03/11 03:28:40;;;;;;;15.77;4.97;;;;;;;;;;5065286;28;20056;-52
2022/03/11 03:31:06;;;;;;;11.52;4.60;;;;;;;;;;5062421;28;20151;-51
2022/03/11 03:33:35;;;;;;;14.20;4.72;;;;;;;;;;5046579;28;20109;-54
2022/03/11 03:36:01;;;;;;;8.90;3.42;;;;;;;;;;5052180;28;20056;-47
2022/03/11 03:38:28;;;;;;;7.22;3.15;;;;;;;;;;5049792;28;20060;-52
2022/03/11 03:40:54;;;;;;;14.75;5.03;;;;;;;;;;5048556;28;20122;-52
2022/03/11 03:43:21;;;;;;;12.90;5.25;;;;;;;;;;5052129;28;20052;-53
2022/03/11 03:45:47;;;;;;;17.95;5.28;;;;;;;;;;5063798;28;20066;-55
2022/03/11 03:48:14;;;;;;;11.40;4.25;;;;;;;;;;5068098;28;20084;-56
2022/03/11 03:50:42;;;;;;;13.95;4.43;;;;;;;;;;5065197;28;20074;-51
2022/03/11 03:53:10;;;;;;;12.10;4.38;;;;;;;;;;5072699;28;20052;-54
2022/03/11 03:55:37;;;;;;;11.30;4.55;;;;;;;;;;5053744;28;20056;-48
2022/03/11 03:58:03;;;;;;;7.68;3.15;;;;;;;;;;5053132;28;20048;-52
2022/03/11 04:00:30;;;;;;;10.70;4.43;;;;;;;;;;5056859;28;20059;-52
2022/03/11 04:02:58;;;;;;;12.07;4.80;;;;;;;;;;5071651;28;20052;-48
2022/03/11 04:05:24;;;;;;;9.67;3.63;;;;;;;;;;5065349;28;20123;-51
2022/03/11 04:07:53;;;;;;;12.45;4.60;;;;;;;;;;5071559;28;20072;-53
2022/03/11 04:10:20;;;;;;;14.25;4.95;;;;;;;;;;5065225;28;20044;-52
2022/03/11 04:12:47;;;;;;;15.93;4.45;;;;;;;;;;5071881;28;20056;-55
2022/03/11 04:15:13;;;;;;;15.75;5.25;;;;;;;;;;5062366;28;20165;-53
2022/03/11 04:17:40;;;;;;;10.05;4.22;;;;;;;;;;5051174;28;20048;-60
2022/03/11 04:20:07;;;;;;;9.82;4.40;;;;;;;;;;5047972;28;20052;-57
2022/03/11 04:22:40;;;;;;;11.77;4.57;;;;;;;;;;5032327;28;20049;-55
2022/03/11 04:25:09;;;;;;;10.27;3.30;;;;;;;;;;5031556;28;20049;-52
2022/03/11 04:27:35;;;;;;;11.65;4.35;;;;;;;;;;5065679;28;20052;-57
2022/03/11 04:30:02;;;;;;;14.35;5.07;;;;;;;;;;5072983;28;20119;-60
2022/03/11 04:32:29;;;;;;;13.43;4.25;;;;;;;;;;5048327;28;20045;-58
2022/03/11 04:34:56;;;;;;;11.50;4.28;;;;;;;;;;5052141;28;20090;-52
2022/03/11 04:37:22;;;;;;;10.40;4.32;;;;;;;;;;5059415;28;20055;-54
2022/03/11 04:39:49;;;;;;;8.50;4.05;;;;;;;;;;5070347;28;20052;-58
2022/03/11 04:42:17;;;;;;;11.05;4.35;;;;;;;;;;5055864;28;20044;-60
2022/03/11 04:44:43;;;;;;;11.13;3.70;;;;;;;;;;5071828;28;20074;-62
2022/03/11 04:47:10;;;;;;;9.93;4.03;;;;;;;;;;5056058;28;20118;-57
2022/03/11 04:49:36;;;;;;;14.95;4.75;;;;;;;;;;5051092;28;20051;-49
2022/03/11 04:52:04;;;;;;;13.88;4.80;;;;;;;;;;5044975;28;20246;-54
2022/03/11 04:54:32;;;;;;;11.25;4.28;;;;;;;;;;5050969;28;20108;-51
2022/03/11 04:57:01;;;;;;;15.20;5.13;;;;;;;;;;5045243;28;20072;-52
2022/03/11 04:59:29;;;;;;;10.23;4.53;;;;;;;;;;5051291;28;20049;-52
2022/03/11 05:01:55;;;;;;;12.80;4.65;;;;;;;;;;5044969;28;20052;-52
2022/03/11 05:04:25;;;;;;;9.10;3.97;;;;;;;;;;5050612;28;20063;-54
2022/03/11 05:06:52;;;;;;;13.70;5.18;;;;;;;;;;5047306;28;20139;-55
2022/03/11 05:09:18;;;;;;;13.13;4.68;;;;;;;;;;5068227;28;20047;-54
2022/03/11 05:11:45;;;;;;;12.48;4.68;;;;;;;;;;5070639;28;20052;-53
2022/03/11 05:14:12;;;;;;;13.60;4.82;;;;;;;;;;5063179;28;20047;-59
2022/03/11 05:16:43;;;;;;;13.43;4.85;;;;;;;;;;5070460;28;20123;-59
2022/03/11 05:19:09;;;;;;;10.35;4.20;;;;;;;;;;5064005;28;20068;-58
2022/03/11 05:21:36;;;;;;;13.30;4.25;;;;;;;;;;5070722;28;20047;-61
2022/03/11 05:24:03;;;;;;;5.38;2.35;;;;;;;;;;5051364;28;20052;-61
2022/03/11 05:26:30;;;;;;;13.18;4.50;;;;;;;;;;5049997;28;20048;-60
2022/03/11 05:28:59;;;;;;;11.57;4.38;;;;;;;;;;5044643;28;20056;-59
2022/03/11 05:31:26;;;;;;;11.40;4.78;;;;;;;;;;5051249;28;20102;-57
2022/03/11 05:33:55;;;;;;;11.13;3.90;;;;;;;;;;5045319;28;20058;-59
2022/03/11 05:36:22;;;;;;;8.63;3.40;;;;;;;;;;5047669;28;20052;-60
2022/03/11 05:38:49;;;;;;;14.45;4.05;;;;;;;;;;5043080;28;20048;-54
2022/03/11 05:41:15;;;;;;;10.88;4.43;;;;;;;;;;5056792;28;20052;-60
2022/03/11 05:43:42;;;;;;;12.40;4.72;;;;;;;;;;5043783;28;20048;-52
2022/03/11 05:46:09;;;;;;;11.23;4.25;;;;;;;;;;5051963;28;20051;-57
2022/03/11 05:48:35;;;;;;;10.48;4.20;;;;;;;;;;5045847;28;20056;-52
2022/03/11 05:51:03;;;;;;;9.35;3.25;;;;;;;;;;5070455;28;20117;-57
2022/03/11 05:53:32;;;;;;;10.63;4.13;;;;;;;;;;5066937;28;20048;-61
2022/03/11 05:55:59;;;;;;;12.20;4.65;;;;;;;;;;5063441;28;20103;-58
2022/03/11 05:58:25;;;;;;;13.27;4.60;;;;;;;;;;5070334;28;20084;-54
2022/03/11 06:00:52;;;;;;;10.65;4.05;;;;;;;;;;5048721;28;20139;-58
2022/03/11 06:03:21;;;;;;;9.23;3.95;;;;;;;;;;5052676;28;20056;-61
2022/03/11 06:05:48;;;;;;;16.67;4.90;;;;;;;;;;5041502;28;20056;-58
2022/03/11 06:08:16;;;;;;;16.08;4.18;;;;;;;;;;5030033;28;20060;-59
2022/03/11 06:10:44;;;;;;;14.30;5.10;;;;;;;;;;5036494;28;20059;-54
2022/03/11 06:13:11;;;;;;;11.32;3.90;;;;;;;;;;5046848;28;20052;-55
2022/03/11 06:15:38;;;;;;;9.70;3.40;;;;;;;;;;5040412;28;20065;-56
2022/03/11 06:18:05;;;;;;;10.68;3.53;;;;;;;;;;5045833;28;20087;-54
2022/03/11 06:20:32;;;;;;;9.98;4.18;;;;;;;;;;5045587;28;20072;-56
2022/03/11 06:23:00;;;;;;;18.83;5.00;;;;;;;;;;5058653;28;20098;-58
2022/03/11 06:25:28;;;;;;;14.50;4.97;;;;;;;;;;5042708;28;20056;-59
2022/03/11 06:27:55;;;;;;;13.27;4.20;;;;;;;;;;5048516;28;20056;-52
2022/03/11 06:30:21;;;;;;;11.10;3.72;;;;;;;;;;5042492;28;20178;-59
2022/03/11 06:32:49;;;;;;;10.65;4.47;;;;;;;;;;5046488;28;20053;-58
2022/03/11 06:35:17;;;;;;;12.88;4.63;;;;;;;;;;5047966;28;20040;-60
2022/03/11 06:37:44;;;;;;;11.52;4.57;;;;;;;;;;5046120;28;20053;-57
2022/03/11 06:40:10;;;;;;;12.85;4.30;;;;;;;;;;5048682;28;20076;-57
2022/03/11 06:42:39;;;;;;;12.00;4.25;;;;;;;;;;5042562;28;20056;-59
2022/03/11 06:45:06;;;;;;;12.98;4.35;;;;;;;;;;5048596;28;20103;-59
2022/03/11 06:47:33;;;;;;;10.68;4.00;;;;;;;;;;5043900;28;20061;-59
2022/03/11 06:50:00;;;;;;;13.48;4.88;;;;;;;;;;5047372;28;20056;-56
2022/03/11 06:52:26;;;;;;;10.80;4.10;;;;;;;;;;5039043;28;20107;-56
2022/03/11 06:54:53;;;;;;;10.25;4.05;;;;;;;;;;5050640;28;20189;-60
2022/03/11 06:57:20;;;;;;;14.40;4.20;;;;;;;;;;5033978;28;20080;-60
2022/03/11 06:59:49;;;;;;;10.77;4.07;;;;;;;;;;5041293;28;20053;-57
2022/03/11 07:02:16;;;;;;;12.90;4.63;;;;;;;;;;5046815;28;20061;-54
2022/03/11 07:04:43;;;;;;;11.43;3.67;;;;;;;;;;5053444;28;20115;-57
2022/03/11 07:07:09;;;;;;;9.90;3.95;;;;;;;;;;5045026;28;20136;-53
2022/03/11 07:09:36;;;;;;;13.43;4.35;;;;;;;;;;5052002;28;20080;-58
2022/03/11 07:12:03;;;;;;;17.38;4.88;;;;;;;;;;5046328;28;20060;-61
2022/03/11 07:14:33;;;;;;;10.93;3.88;;;;;;;;;;5049839;28;20053;-53
2022/03/11 07:17:01;;;;;;;10.23;3.97;;;;;;;;;;5045548;28;20045;-53
2022/03/11 07:19:28;;;;;;;12.07;4.57;;;;;;;;;;5048620;28;20055;-57
2022/03/11 07:21:55;;;;;;;11.63;4.45;;;;;;;;;;5062064;28;20087;-54
2022/03/11 07:24:21;;;;;;;14.35;4.97;;;;;;;;;;5063101;28;20056;-58
2022/03/11 07:26:48;;;;;;;12.00;4.57;;;;;;;;;;5071310;28;20056;-60
2022/03/11 07:29:14;;;;;;;15.35;5.25;;;;;;;;;;5063701;28;20113;-61
2022/03/11 07:31:41;;;;;;;13.73;5.15;;;;;;;;;;5056304;28;20049;-60
2022/03/11 07:34:12;;;;;;;13.23;4.07;;;;;;;;;;5058801;28;20143;-55
2022/03/11 07:36:39;;;;;;;10.93;3.20;;;;;;;;;;5070939;28;20135;-57
2022/03/11 07:39:06;;;;;;;17.80;4.15;;;;;;;;;;5063112;28;20147;-57
2022/03/11 07:41:33;;;;;;;10.57;4.13;;;;;;;;;;5069261;28;20160;-54
2022/03/11 07:44:00;;;;;;;9.32;3.60;;;;;;;;;;5064009;28;20048;-53
2022/03/11 07:46:27;;;;;;;14.70;4.90;;;;;;;;;;5070320;28;20053;-57
2022/03/11 07:48:54;;;;;;;18.05;4.75;;;;;;;;;;5062294;28;20060;-58
2022/03/11 07:51:22;;;;;;;10.85;4.25;;;;;;;;;;5069992;28;20055;-58
2022/03/11 07:53:50;;;;;;;13.93;5.38;;;;;;;;;;5063206;28;20055;-53
2022/03/11 07:56:17;;;;;;;13.95;4.72;;;;;;;;;;5056813;28;20112;-53
2022/03/11 07:58:44;;;;;;;14.35;5.18;;;;;;;;;;5044470;28;20052;-51
2022/03/11 08:01:10;;;;;;;13.27;4.95;;;;;;;;;;5049812;28;20052;-57
2022/03/11 08:03:38;;;;;;;11.90;4.72;;;;;;;;;;5049591;28;20049;-58
2022/03/11 08:06:05;;;;;;;9.80;3.60;;;;;;;;;;5061905;28;20052;-51
2022/03/11 08:08:33;;;;;;;12.40;4.50;;;;;;;;;;5066015;28;20072;-58
2022/03/11 08:11:00;;;;;;;7.20;2.92;;;;;;;;;;5059913;28;20047;-52
2022/03/11 08:13:29;;;;;;;14.32;4.85;;;;;;;;;;5067308;28;20121;-53
2022/03/11 08:15:56;;;;;;;12.98;3.85;;;;;;;;;;5047834;28;20052;-55
2022/03/11 08:18:22;;;;;;;15.90;5.60;;;;;;;;;;5048616;28;20128;-55
2022/03/11 08:20:49;;;;;;;12.15;3.67;;;;;;;;;;5043325;28;20045;-58
2022/03/11 08:23:16;;;;;;;13.05;4.82;;;;;;;;;;5048293;28;20049;-52
2022/03/11 08:25:45;;;;;;;14.20;5.28;;;;;;;;;;5043384;28;20044;-53
2022/03/11 08:28:13;;;;;;;12.88;5.05;;;;;;;;;;5067659;28;20048;-59
2022/03/11 08:30:40;;;;;;;10.02;4.07;;;;;;;;;;5056675;28;20041;-58
2022/03/11 08:33:08;;;;;;;12.65;4.15;;;;;;;;;;5048689;28;20125;-56
2022/03/11 08:35:34;;;;;;;16.70;4.95;;;;;;;;;;5045806;28;20060;-57
2022/03/11 08:38:04;;;;;;;12.13;4.53;;;;;;;;;;5047495;28;20053;-55
2022/03/11 08:40:31;;;;;;;6.90;2.22;;;;;;;;;;5045995;28;20068;-55
2022/03/11 08:42:59;;;;;;;13.52;5.03;;;;;;;;;;5047724;28;20060;-56
2022/03/11 08:45:26;;;;;;;13.63;4.57;;;;;;;;;;5043618;28;20053;-57
2022/03/11 08:47:53;;;;;;;13.50;5.55;;;;;;;;;;5067889;28;20068;-59
2022/03/11 08:50:20;;;;;;;13.88;5.70;;;;;;;;;;5066738;28;20060;-58
2022/03/11 08:52:48;;;;;;;7.55;3.55;;;;;;;;;;5050715;28;20080;-56
2022/03/11 08:55:15;;;;;;;13.60;5.07;;;;;;;;;;5047880;28;20048;-59
2022/03/11 08:57:48;;;;;;;15.45;5.65;;;;;;;;;;5057922;28;20056;-59
2022/03/11 09:00:17;;;;;;;16.00;5.97;;;;;;;;;;5068718;28;20060;-59
2022/03/11 09:02:43;;;;;;;;;;;;;;;;;;5063924;28;20082;-60
2022/03/11 09:05:10;;;;;;;17.17;6.80;;;;;;;;;;5060826;28;19925;-61
2022/03/11 09:07:37;;;;;;;8.15;2.75;;;;;;;;;;5042425;28;20056;-54
2022/03/11 09:10:04;;;;;;;15.50;6.00;;;;;;;;;;5047674;28;20045;-56
2022/03/11 09:12:31;;;;;;;19.02;6.20;;;;;;;;;;5053426;28;20076;-57
2022/03/11 09:14:58;;;;;;;16.02;6.07;;;;;;;;;;5070835;28;20052;-60
2022/03/11 09:17:27;;;;;;;9.55;3.95;;;;;;;;;;5063654;28;20052;-57
2022/03/11 09:19:54;;;;;;;10.40;4.55;;;;;;;;;;5070350;28;20056;-56
2022/03/11 09:22:21;;;;;;;16.15;6.15;;;;;;;;;;5059533;28;20152;-53
2022/03/11 09:24:50;;;;;;;25.75;6.47;;;;;;;;;;5051142;28;20052;-48
2022/03/11 09:27:18;;;;;;;16.15;5.93;;;;;;;;;;5046931;28;20063;-56
2022/03/11 09:29:44;;;;;;;17.98;5.68;;;;;;;;;;5070910;28;20052;-52
2022/03/11 09:32:11;;;;;;;18.58;6.53;;;;;;;;;;5048784;28;20076;-55
2022/03/11 09:34:40;;;;;;;17.48;6.60;;;;;;;;;;5068381;28;20056;-57
2022/03/11 09:37:07;;;;;;;14.48;5.55;;;;;;;;;;5070670;28;20060;-56
2022/03/11 09:39:33;;;;;;;15.70;6.05;;;;;;;;;;5063458;28;20055;-56
2022/03/11 09:42:02;;;;;;;12.48;4.68;;;;;;;;;;5038291;28;20053;-55
2022/03/11 09:44:30;;;;;;;17.60;6.65;;;;;;;;;;5027644;28;20059;-53
2022/03/11 09:46:58;;;;;;;11.73;5.15;;;;;;;;;;5047741;28;20052;-58
2022/03/11 09:49:24;;;;;;;13.57;5.63;;;;;;;;;;5044987;28;20056;-54
2022/03/11 09:51:52;;;;;;;16.73;5.95;;;;;;;;;;5059106;28;20081;-53
2022/03/11 09:54:20;;;;;;;18.00;7.03;;;;;;;;;;5054977;28;20063;-53
2022/03/11 09:56:47;;;;;;;18.73;6.80;;;;;;;;;;5072334;28;20149;-54
2022/03/11 09:59:13;;;;;;;18.70;6.80;;;;;;;;;;5057340;28;20322;-53
2022/03/11 10:01:41;;;;;;;14.18;5.40;;;;;;;;;;5052337;28;20059;-55
2022/03/11 10:04:08;;;;;;;18.15;7.00;;;;;;;;;;5045514;28;20047;-49
2022/03/11 10:06:39;;;;;;;18.53;6.73;;;;;;;;;;5060400;28;20110;-55
2022/03/11 10:09:08;;;;;;;14.75;5.55;;;;;;;;;;5065691;28;20064;-57
2022/03/11 10:11:36;;;;;;;9.32;4.03;;;;;;;;;;5071831;28;20040;-52
2022/03/11 10:14:08;;;;;;;13.70;5.20;;;;;;;;;;5050879;28;20057;-56
2022/03/11 10:16:35;;;;;;;19.30;6.28;;;;;;;;;;5070654;28;20052;-55
2022/03/11 10:19:04;;;;;;;14.93;5.68;;;;;;;;;;5064951;28;20052;-53
2022/03/11 10:21:32;;;;;;;10.65;3.88;;;;;;;;;;5030411;28;20056;-49
2022/03/11 10:23:59;;;;;;;12.18;5.32;;;;;;;;;;5042319;28;20095;-60
2022/03/11 10:26:34;;;;;;;18.77;6.10;;;;;;;;;;5010490;28;20041;-54
2022/03/11 10:29:01;;;;;;;16.30;5.57;;;;;;;;;;5025343;28;20061;-57
2022/03/11 10:31:31;;;;;;;11.48;3.90;;;;;;;;;;5026524;28;20084;-54
2022/03/11 10:34:17;;;;;;;16.77;5.63;;;;;;;;;;5035707;28;20129;-53
2022/03/11 10:36:51;;;;;;;15.23;5.90;;;;;;;;;;5043061;28;20053;-56
2022/03/11 10:39:19;;;;;;;13.68;6.03;;;;;;;;;;5052187;28;20064;-57
2022/03/11 10:41:49;;;;;;;21.40;6.68;;;;;;;;;;5028293;28;20056;-57
2022/03/11 10:44:22;;;;;;;18.95;7.22;;;;;;;;;;5047416;28;20103;-59
2022/03/11 10:46:48;;;;;;;21.30;7.05;;;;;;;;;;5044702;28;20055;-57
2022/03/11 10:49:24;;;;;;;17.52;6.45;;;;;;;;;;5050153;28;20060;-55
2022/03/11 10:51:52;;;;;;;14.02;6.13;;;;;;;;;;5044807;28;20116;-55
2022/03/11 10:54:19;;;;;;;12.75;4.70;;;;;;;;;;5055018;28;20070;-54
2022/03/11 10:56:47;;;;;;;17.55;6.72;;;;;;;;;;5040479;28;20140;-55
2022/03/11 10:59:15;;;;;;;15.05;6.47;;;;;;;;;;5049924;28;20125;-54
2022/03/11 11:01:42;;;;;;;16.10;6.35;;;;;;;;;;5053077;28;20144;-54
2022/03/11 11:04:10;;;;;;;12.65;5.82;;;;;;;;;;5070044;28;20079;-54
2022/03/11 11:06:37;;;;;;;17.13;6.03;;;;;;;;;;5056086;28;20129;-55
2022/03/11 11:09:04;;;;;;;11.48;4.57;;;;;;;;;;5049736;28;20299;-60
2022/03/11 11:11:31;;;;;;;19.40;5.93;;;;;;;;;;5043749;28;20049;-56
2022/03/11 11:14:04;;;;;;;17.17;6.00;;;;;;;;;;5049310;28;20140;-57
2022/03/11 11:16:31;;;;;;;19.55;6.25;;;;;;;;;;5043584;28;20052;-58
2022/03/11 11:18:58;;;;;;;17.42;6.70;;;;;;;;;;5049277;28;20129;-60
2022/03/11 11:21:25;;;;;;;18.70;7.00;;;;;;;;;;5046205;28;20048;-53
2022/03/11 11:23:54;;;;;;;19.33;7.30;;;;;;;;;;5048325;28;20060;-55
2022/03/11 11:26:21;;;;;;;20.70;8.15;;;;;;;;;;5049192;28;20049;-60
2022/03/11 11:28:48;;;;;;;20.83;8.50;;;;;;;;;;5060767;28;20048;-55
2022/03/11 11:31:18;;;;;;;15.95;7.07;;;;;;;;;;5058550;28;20071;-57
2022/03/11 11:33:45;;;;;;;15.80;5.60;;;;;;;;;;5059034;28;20052;-57
2022/03/11 11:36:12;;;;;;;16.27;5.78;;;;;;;;;;5069381;28;20059;-57
2022/03/11 11:38:42;;;;;;;14.68;6.20;;;;;;;;;;5050819;28;20061;-51
2022/03/11 11:41:25;;;;;;;19.83;7.07;;;;;;;;;;5048904;28;20045;-56
2022/03/11 11:43:52;;;;;;;18.23;7.82;;;;;;;;;;5055089;28;20078;-56
2022/03/11 11:46:22;;;;;;;9.52;2.95;;;;;;;;;;5067022;28;20049;-53
2022/03/11 11:48:59;;;;;;;18.15;7.68;;;;;;;;;;5063075;28;20178;-53
2022/03/11 11:51:41;;;;;;;15.93;6.65;;;;;;;;;;5068834;28;20056;-54
2022/03/11 11:54:10;;;;;;;18.50;5.75;;;;;;;;;;5061695;28;20049;-53
2022/03/11 11:56:37;;;;;;;19.45;8.00;;;;;;;;;;5068894;28;20061;-52
2022/03/11 11:59:05;;;;;;;18.75;7.97;;;;;;;;;;5062488;28;20076;-57
2022/03/11 12:01:42;;;;;;;14.93;6.50;;;;;;;;;;5060963;28;20044;-59
2022/03/11 12:04:32;;;;;;;18.20;8.35;;;;;;;;;;5053695;28;20145;-59
2022/03/11 12:06:59;;;;;;;23.77;7.70;;;;;;;;;;5041780;28;20064;-60
2022/03/11 12:09:47;;;;;;;20.52;8.45;;;;;;;;;;5043418;28;20079;-60
2022/03/11 12:12:32;;;;;;;16.13;7.57;;;;;;;;;;5050120;28;20053;-59
2022/03/11 12:15:26;;;;;;;18.60;7.47;;;;;;;;;;5045333;28;20084;-58
2022/03/11 12:17:58;;;;;;;20.35;8.77;;;;;;;;;;5001987;28;20057;-56
2022/03/11 12:20:26;;;;;;;14.57;5.50;;;;;;;;;;5056448;28;20139;-52
2022/03/11 12:22:54;;;;;;;20.08;8.25;;;;;;;;;;5068877;28;20091;-56
2022/03/11 12:25:25;;;;;;;20.13;6.13;;;;;;;;;;5060847;28;20052;-53
2022/03/11 12:28:05;;;;;;;17.90;7.68;;;;;;;;;;5048284;28;20053;-57
2022/03/11 12:30:32;;;;;;;16.80;7.15;;;;;;;;;;5051716;28;20049;-54
2022/03/11 12:33:02;;;;;;;22.67;7.65;;;;;;;;;;5050387;28;20099;-56
2022/03/11 12:35:28;;;;;;;19.90;7.85;;;;;;;;;;5045234;28;20061;-57
2022/03/11 12:37:55;;;;;;;16.70;7.18;;;;;;;;;;5048130;28;20055;-54
2022/03/11 12:40:22;;;;;;;18.05;6.18;;;;;;;;;;5043491;28;20060;-57
2022/03/11 12:42:49;;;;;;;17.67;7.90;;;;;;;;;;5048482;28;20061;-59
2022/03/11 12:45:29;;;;;;;18.58;7.18;;;;;;;;;;5042911;28;20049;-55
2022/03/11 12:47:57;;;;;;;15.65;6.90;;;;;;;;;;5047405;28;20060;-52
2022/03/11 12:50:26;;;;;;;12.10;4.88;;;;;;;;;;5034173;28;20060;-54
2022/03/11 12:52:55;;;;;;;20.30;7.35;;;;;;;;;;5046966;28;20075;-57
2022/03/11 12:55:23;;;;;;;18.33;8.35;;;;;;;;;;5036059;28;20054;-54
2022/03/11 12:57:52;;;;;;;12.73;5.30;;;;;;;;;;5075221;28;20060;-56
2022/03/11 13:00:19;;;;;;;16.77;7.07;;;;;;;;;;5062358;28;20056;-56
2022/03/11 13:02:46;;;;;;;16.58;6.75;;;;;;;;;;5082806;28;20061;-58
2022/03/11 13:05:19;;;;;;;16.35;7.82;;;;;;;;;;5067997;28;20056;-57
2022/03/11 13:07:47;;;;;;;16.65;7.03;;;;;;;;;;5042018;28;20049;-56
2022/03/11 13:10:15;;;;;;;20.42;8.32;;;;;;;;;;5048352;28;20111;-56
2022/03/11 13:12:42;;;;;;;15.37;7.03;;;;;;;;;;5041290;28;20053;-55
2022/03/11 13:15:11;;;;;;;20.45;8.60;;;;;;;;;;5047284;28;20084;-60
2022/03/11 13:17:42;;;;;;;19.77;8.27;;;;;;;;;;5040753;28;20071;-60
2022/03/11 13:20:09;;;;;;;19.00;7.68;;;;;;;;;;5047799;28;20068;-59
2022/03/11 13:22:38;;;;;;;23.63;8.68;;;;;;;;;;5041233;28;20056;-59
2022/03/11 13:25:06;;;;;;;17.20;7.28;;;;;;;;;;5047425;28;20057;-60
2022/03/11 13:27:38;;;;;;;16.85;6.68;;;;;;;;;;5051769;28;20045;-59
2022/03/11 13:30:05;;;;;;;16.60;8.18;;;;;;;;;;5064579;28;20064;-58
2022/03/11 13:32:32;;;;;;;14.38;6.47;;;;;;;;;;5049963;28;20044;-55
2022/03/11 13:34:58;;;;;;;21.25;8.30;;;;;;;;;;5067996;28;20108;-57
2022/03/11 13:37:25;;;;;;;19.15;7.90;;;;;;;;;;5055451;28;20131;-59
2022/03/11 13:40:06;;;;;;;14.25;7.25;;;;;;;;;;5047364;28;20049;-58
2022/03/11 13:42:36;;;;;;;16.38;6.65;;;;;;;;;;5041997;28;20064;-54
2022/03/11 13:45:07;;;;;;;10.57;5.32;;;;;;;;;;5046278;28;20057;-59
2022/03/11 13:47:33;;;;;;;14.18;6.50;;;;;;;;;;5044281;28;20149;-58
2022/03/11 13:50:07;;;;;;;14.60;6.60;;;;;;;;;;5062794;28;20060;-57
2022/03/11 13:52:40;;;;;;;17.35;6.97;;;;;;;;;;5058162;28;20048;-56
2022/03/11 13:55:08;;;;;;;11.02;4.78;;;;;;;;;;5064630;28;20045;-55
2022/03/11 13:57:37;;;;;;;17.38;6.35;;;;;;;;;;5059884;28;20079;-57
2022/03/11 14:00:15;;;;;;;18.52;7.47;;;;;;;;;;5030515;28;20176;-57
2022/03/11 14:02:42;;;;;;;17.45;7.20;;;;;;;;;;5031131;28;20061;-56
2022/03/11 14:05:10;;;;;;;23.27;8.70;;;;;;;;;;5065176;28;20052;-60
2022/03/11 14:07:37;;;;;;;14.65;6.63;;;;;;;;;;5067633;28;20067;-61
2022/03/11 14:10:05;;;;;;;16.80;7.05;;;;;;;;;;5049986;28;20060;-58
2022/03/11 14:12:35;;;;;;;17.20;7.80;;;;;;;;;;5050007;28;20108;-60
2022/03/11 14:15:08;;;;;;;21.27;7.65;;;;;;;;;;5059455;28;20087;-60
2022/03/11 14:17:35;;;;;;;14.13;5.97;;;;;;;;;;5068749;28;20056;-59
2022/03/11 14:20:04;;;;;;;14.70;7.03;;;;;;;;;;5060748;28;20048;-59
2022/03/11 14:22:31;;;;;;;16.30;7.13;;;;;;;;;;5067008;28;20063;-55
2022/03/11 14:24:57;;;;;;;14.95;7.00;;;;;;;;;;5060356;28;20151;-58
2022/03/11 14:27:24;;;;;;;17.15;6.93;;;;;;;;;;5066893;28;20135;-57
2022/03/11 14:29:50;;;;;;;19.58;7.38;;;;;;;;;;5052254;28;20075;-58
2022/03/11 14:32:18;;;;;;;15.05;6.63;;;;;;;;;;5047027;28;20056;-57
2022/03/11 14:34:47;;;;;;;23.58;8.23;;;;;;;;;;5040813;28;20048;-58